Time;durP1;ratioP1;P1;durP2;ratioP2;P2;SDS_P1;SDS_P2;PMS_P1;PMS_P2;Temp;Humidity;BMP_temperature;BMP_pressure;BME280_temperature;BME280_humidity;BME280_pressure;Samples;Min_cycle;Max_cycle;Signal;HPM_P1;HPM_P2
2021/04/01 00:01:16;;;;;;;61.85;40.17;;;;;;;2.86;84.86;100835.31;1793201;80;21781;-79
2021/04/01 00:04:23;;;;;;;64.95;40.73;;;;;;;2.86;84.43;100834.83;1791759;80;21188;-80
2021/04/01 00:07:29;;;;;;;70.08;42.88;;;;;;;2.88;84.57;100839.65;1792967;78;21737;-79
2021/04/01 00:10:38;;;;;;;86.17;44.77;;;;;;;2.87;84.10;100832.98;1793260;80;21254;-79
2021/04/01 00:13:43;;;;;;;87.53;43.65;;;;;;;2.86;84.24;100832.12;1791743;78;21187;-79
2021/04/01 00:16:49;;;;;;;77.30;44.85;;;;;;;2.87;84.16;100828.94;1793273;78;21255;-79
2021/04/01 00:19:54;;;;;;;96.22;43.63;;;;;;;2.90;84.59;100827.36;1793292;80;21450;-80
2021/04/01 00:23:00;;;;;;;93.30;47.13;;;;;;;2.94;85.06;100828.38;1792913;78;21160;-80
2021/04/01 00:26:05;;;;;;;78.95;44.03;;;;;;;2.94;84.74;100822.11;1793138;80;21152;-79
2021/04/01 00:29:10;;;;;;;80.60;46.58;;;;;;;2.94;84.56;100815.35;1791689;80;21283;-79
2021/04/01 00:32:16;;;;;;;74.07;44.53;;;;;;;2.96;85.01;100810.68;1793138;78;21314;-79
2021/04/01 00:35:22;;;;;;;76.35;41.92;;;;;;;2.98;85.57;100814.15;1793260;80;21258;-80
2021/04/01 00:38:28;;;;;;;81.85;44.85;;;;;;;2.99;85.78;100815.38;1792332;78;22231;-80
2021/04/01 00:41:34;;;;;;;70.28;40.38;;;;;;;3.01;85.67;100804.44;1791645;79;21302;-79
2021/04/01 00:44:40;;;;;;;91.95;46.25;;;;;;;3.00;85.02;100799.52;1792443;80;21314;-79
2021/04/01 00:47:50;;;;;;;82.22;45.28;;;;;;;2.96;84.53;100804.78;1793164;79;21191;-80
2021/04/01 00:50:55;;;;;;;127.53;52.40;;;;;;;2.92;83.91;100800.61;1793843;80;21330;-79
2021/04/01 00:54:03;;;;;;;92.12;43.48;;;;;;;2.88;83.92;100799.61;1793186;80;21307;-79
2021/04/01 00:57:09;;;;;;;83.00;46.65;;;;;;;2.84;84.00;100787.30;1794103;78;21314;-80
2021/04/01 01:00:16;;;;;;;85.38;58.90;;;;;;;2.85;84.41;100787.67;1794079;80;21259;-80
2021/04/01 01:03:21;;;;;;;71.30;41.98;;;;;;;2.85;85.24;100775.02;1794045;78;21294;-79
2021/04/01 01:06:28;;;;;;;70.32;43.70;;;;;;;2.88;85.72;100778.85;1781989;80;21259;-79
2021/04/01 01:09:33;;;;;;;67.22;43.38;;;;;;;2.87;85.94;100770.38;1793878;80;21157;-80
2021/04/01 01:12:38;;;;;;;77.37;42.88;;;;;;;2.89;86.59;100764.84;1794062;78;21780;-79
2021/04/01 01:15:44;;;;;;;71.85;44.53;;;;;;;2.95;87.21;100773.83;1792353;80;21148;-80
2021/04/01 01:18:49;;;;;;;70.08;46.80;;;;;;;2.98;87.63;100765.02;1793962;78;21291;-80
2021/04/01 01:21:54;;;;;;;75.52;45.15;;;;;;;3.01;87.87;100758.03;1793967;78;21397;-79
2021/04/01 01:25:00;;;;;;;70.60;42.15;;;;;;;3.07;88.20;100759.40;1793983;80;21843;-79
2021/04/01 01:28:06;;;;;;;68.00;40.92;;;;;;;3.10;88.48;100756.44;1793976;78;21204;-79
2021/04/01 01:31:12;;;;;;;73.67;39.58;;;;;;;3.13;88.41;100757.56;1794026;80;21259;-80
2021/04/01 01:34:18;;;;;;;86.05;43.02;;;;;;;3.11;87.79;100759.55;1793950;80;21272;-80
2021/04/01 01:37:24;;;;;;;96.45;43.83;;;;;;;3.05;86.53;100764.04;1793727;78;21205;-80
2021/04/01 01:40:31;;;;;;;93.78;45.75;;;;;;;2.99;85.48;100757.77;1793760;80;21177;-79
2021/04/01 01:43:36;;;;;;;79.07;41.33;;;;;;;2.92;84.89;100748.41;1787164;79;21748;-80
2021/04/01 01:46:41;;;;;;;83.10;42.35;;;;;;;2.87;84.09;100750.58;1787644;79;21256;-79
2021/04/01 01:49:49;;;;;;;90.17;43.08;;;;;;;2.79;83.38;100749.33;1787602;80;21326;-80
2021/04/01 01:52:55;;;;;;;79.37;42.43;;;;;;;2.74;83.18;100746.12;1787555;79;21299;-79
2021/04/01 01:56:00;;;;;;;71.42;45.30;;;;;;;2.66;82.74;100744.97;1787684;80;21817;-79
2021/04/01 01:59:06;;;;;;;84.07;46.53;;;;;;;2.63;83.25;100750.58;1787587;80;21273;-79
2021/04/01 02:02:10;;;;;;;96.42;46.45;;;;;;;2.60;84.12;100746.29;1787736;78;21184;-80
2021/04/01 02:05:17;;;;;;;75.03;40.92;;;;;;;2.60;84.76;100751.69;1787481;80;21797;-79
2021/04/01 02:08:22;;;;;;;73.10;41.70;;;;;;;2.56;84.45;100744.80;1787609;79;21291;-79
2021/04/01 02:11:28;;;;;;;65.95;42.58;;;;;;;2.54;84.17;100741.33;1787750;80;21286;-80
2021/04/01 02:14:33;;;;;;;71.53;42.95;;;;;;;2.55;84.48;100743.08;1787475;80;21251;-79
2021/04/01 02:17:38;;;;;;;69.58;43.38;;;;;;;2.52;84.62;100741.94;1787587;79;21307;-80
2021/04/01 02:20:48;;;;;;;63.48;41.45;;;;;;;2.51;84.94;100742.92;1787645;80;21227;-79
2021/04/01 02:23:52;;;;;;;61.08;40.90;;;;;;;2.49;85.53;100739.00;1787526;79;21208;-79
2021/04/01 02:27:04;;;;;;;68.65;42.23;;;;;;;2.47;86.04;100734.19;1772327;79;21286;-79
2021/04/01 02:30:09;;;;;;;65.05;41.33;;;;;;;2.44;86.21;100733.05;1773545;80;21316;-79
2021/04/01 02:33:14;;;;;;;71.37;44.53;;;;;;;2.43;86.41;100734.52;1787617;79;21715;-79
2021/04/01 02:36:20;;;;;;;69.32;43.17;;;;;;;2.39;86.61;100733.02;1787647;80;21259;-80
2021/04/01 02:39:27;;;;;;;62.85;42.48;;;;;;;2.35;86.85;100735.08;1785948;80;21168;-79
2021/04/01 02:42:33;;;;;;;64.67;41.80;;;;;;;2.30;86.98;100730.52;1772595;80;21180;-79
2021/04/01 02:45:38;;;;;;;67.30;42.43;;;;;;;2.33;87.77;100727.59;1772216;80;21152;-79
2021/04/01 02:48:44;;;;;;;61.77;42.45;;;;;;;2.36;88.50;100727.38;1787761;79;21900;-79
2021/04/01 02:51:50;;;;;;;72.20;47.73;;;;;;;2.38;88.96;100728.61;1787605;79;21287;-79
2021/04/01 02:54:57;;;;;;;68.12;43.92;;;;;;;2.36;89.04;100726.52;1787576;80;21181;-79
2021/04/01 02:58:02;;;;;;;68.02;44.75;;;;;;;2.35;89.17;100718.02;1787698;79;21275;-79
2021/04/01 03:01:08;;;;;;;65.32;41.53;;;;;;;2.36;89.35;100717.94;1787566;80;21264;-79
2021/04/01 03:04:14;;;;;;;65.85;42.30;;;;;;;2.36;89.44;100708.97;1787659;80;21259;-79
2021/04/01 03:07:19;;;;;;;68.52;45.00;;;;;;;2.30;89.32;100715.66;1787629;79;21216;-79
2021/04/01 03:10:25;;;;;;;68.35;44.20;;;;;;;2.27;89.01;100717.26;1787541;80;21982;-79
2021/04/01 03:13:30;;;;;;;80.35;43.63;;;;;;;2.23;88.75;100719.81;1787492;79;21275;-79
2021/04/01 03:16:36;;;;;;;68.07;43.90;;;;;;;2.19;88.52;100718.30;1787498;79;21789;-79
2021/04/01 03:19:42;;;;;;;63.85;40.55;;;;;;;2.16;88.56;100713.12;1787407;80;21306;-79
2021/04/01 03:22:48;;;;;;;76.22;45.17;;;;;;;2.16;88.70;100713.12;1786746;79;21306;-80
2021/04/01 03:25:53;;;;;;;67.92;43.65;;;;;;;2.10;88.68;100714.93;1786244;80;21757;-79
2021/04/01 03:29:00;;;;;;;68.87;43.78;;;;;;;2.05;88.69;100709.87;1785978;80;21844;-79
2021/04/01 03:32:05;;;;;;;65.32;42.38;;;;;;;2.05;88.80;100705.82;1771140;79;21809;-79
2021/04/01 03:35:16;;;;;;;58.40;35.78;;;;;;;2.08;89.06;100706.95;1785789;80;21478;-79
2021/04/01 03:38:21;;;;;;;56.75;37.95;;;;;;;2.14;89.41;100706.98;1787714;79;21362;-79
2021/04/01 03:41:29;;;;;;;74.77;44.08;;;;;;;2.15;89.67;100709.56;1786992;80;21845;-79
2021/04/01 03:44:33;;;;;;;62.93;45.03;;;;;;;2.10;89.78;100702.78;1789088;80;21287;-78
2021/04/01 03:47:40;;;;;;;74.45;46.55;;;;;;;2.11;90.04;100705.84;1793920;78;21231;-79
2021/04/01 03:50:46;;;;;;;69.22;43.55;;;;;;;2.16;90.46;100698.27;1794003;80;21299;-79
2021/04/01 03:53:51;;;;;;;68.02;43.00;;;;;;;2.27;91.04;100703.27;1794065;78;21299;-79
2021/04/01 03:56:56;;;;;;;73.47;44.93;;;;;;;2.35;91.40;100697.28;1793836;78;21195;-79
2021/04/01 04:00:13;;;;;;;70.85;44.15;;;;;;;2.47;91.74;100694.17;1793922;80;21192;-79
2021/04/01 04:09:58;;;;;;;;;;;;;;;2.84;92.31;100690.04;1774442;79;21283;-79
2021/04/01 04:16:04;;;;;;;53.70;35.17;;;;;;;3.07;91.89;100686.42;1792368;79;21714;-79
2021/04/01 04:19:10;;;;;;;67.60;43.95;;;;;;;3.17;91.73;100680.66;1794024;80;21260;-79
2021/04/01 04:22:16;;;;;;;69.30;44.13;;;;;;;3.24;91.52;100681.89;1793788;79;21844;-80
2021/04/01 04:25:21;;;;;;;71.05;46.45;;;;;;;3.36;91.43;100680.08;1794131;80;21774;-78
2021/04/01 04:31:32;;;;;;;70.35;43.00;;;;;;;3.65;90.98;100683.17;1794217;80;21164;-79
2021/04/01 04:34:37;;;;;;;67.25;41.85;;;;;;;3.74;90.61;100684.28;1794023;80;21307;-79
2021/04/01 04:37:42;;;;;;;55.95;37.90;;;;;;;3.81;90.41;100681.43;1794007;78;21334;-79
2021/04/01 04:40:47;;;;;;;70.67;40.88;;;;;;;3.90;90.35;100678.48;1794044;80;21267;-79
2021/04/01 04:43:52;;;;;;;63.08;41.63;;;;;;;4.00;90.41;100676.73;1794159;78;21691;-80
2021/04/01 04:46:58;;;;;;;58.80;39.27;;;;;;;4.16;90.43;100677.22;1763378;79;21346;-79
2021/04/01 04:50:04;;;;;;;71.02;40.92;;;;;;;4.29;90.12;100674.37;1758281;81;21257;-80
2021/04/01 04:53:08;;;;;;;55.75;38.73;;;;;;;4.40;89.72;100670.26;1735898;81;21793;-79
2021/04/01 04:56:16;;;;;;;54.90;36.00;;;;;;;4.51;89.39;100670.70;1757999;81;21666;-80
2021/04/01 05:05:50;;;;;;;51.68;32.88;;;;;;;4.77;88.83;100662.60;1757929;81;21278;-80
2021/04/01 05:08:56;;;;;;;55.05;33.95;;;;;;;4.89;88.56;100662.03;1755268;80;21874;-79
2021/04/01 05:12:01;;;;;;;51.40;33.63;;;;;;;5.00;88.36;100657.93;1752020;80;21708;-80
2021/04/01 05:15:08;;;;;;;50.78;31.25;;;;;;;5.20;88.26;100656.70;1755358;80;21576;-80
2021/04/01 05:18:26;;;;;;;43.78;28.80;;;;;;;5.34;87.77;100653.14;1753845;80;21275;-80
2021/04/01 05:21:36;;;;;;;44.33;29.87;;;;;;;5.48;87.63;100659.21;1725300;81;21172;-80
2021/04/01 05:24:38;;;;;;;44.35;28.95;;;;;;;5.62;87.41;100658.85;1763327;80;21262;-80
2021/04/01 05:27:48;;;;;;;51.48;30.97;;;;;;;5.76;87.16;100659.84;1732017;81;21175;-80
2021/04/01 05:30:51;;;;;;;47.90;28.35;;;;;;;5.89;87.07;100655.03;1734900;81;21299;-80
2021/04/01 05:33:58;;;;;;;42.35;27.93;;;;;;;6.06;86.95;100656.75;1729764;81;21191;-80
2021/04/01 05:37:04;;;;;;;41.10;27.82;;;;;;;6.20;86.22;100652.27;1712085;82;21350;-80
2021/04/01 05:40:12;;;;;;;45.08;29.87;;;;;;;6.33;85.74;100646.59;1732307;81;21277;-80
2021/04/01 05:43:21;;;;;;;42.65;26.68;;;;;;;6.47;85.23;100653.47;1731392;81;21342;-81
2021/04/01 05:46:35;;;;;;;46.63;27.50;;;;;;;6.57;84.81;100652.97;1762486;79;21295;-80
2021/04/01 05:49:56;;;;;;;60.15;38.55;;;;;;;6.73;85.06;100649.20;1752069;80;21175;-80
2021/04/01 05:56:43;;;;;;;43.02;27.62;;;;;;;7.11;84.93;100651.02;1757815;80;21247;-80
2021/04/01 06:00:21;;;;;;;39.40;24.70;;;;;;;7.29;84.59;100647.53;1785233;78;21307;-81
2021/04/01 06:02:35;;;;;;;43.78;29.65;;;;;;;7.48;83.38;100653.42;1781594;78;21600;-79
2021/04/01 06:05:45;;;;;;;40.38;29.57;;;;;;;7.57;82.42;100644.37;1785125;80;21322;-80
2021/04/01 06:08:51;;;;;;;34.35;24.77;;;;;;;7.65;82.04;100645.34;1773965;80;21286;-80
2021/04/01 06:12:04;;;;;;;44.70;27.73;;;;;;;7.75;82.22;100638.50;1775120;80;21581;-81
2021/04/01 06:15:14;;;;;;;40.28;26.30;;;;;;;7.91;81.95;100643.31;1777720;79;21164;-80
2021/04/01 06:18:20;;;;;;;42.03;25.20;;;;;;;8.04;81.48;100641.06;1783749;80;21759;-80
2021/04/01 06:21:26;;;;;;;38.85;22.82;;;;;;;8.19;81.24;100646.89;1782949;80;21164;-80
2021/04/01 06:24:33;;;;;;;38.67;23.42;;;;;;;8.36;81.16;100645.19;1775657;79;21289;-80
2021/04/01 06:27:49;;;;;;;36.50;24.40;;;;;;;8.54;80.39;100646.09;1777938;79;21201;-80
2021/04/01 06:31:00;;;;;;;41.05;26.12;;;;;;;8.69;79.86;100643.67;1772917;79;21317;-80
2021/04/01 06:34:03;;;;;;;32.98;23.02;;;;;;;8.82;79.17;100635.11;1772804;79;21314;-81
2021/04/01 06:37:10;;;;;;;43.38;25.00;;;;;;;8.94;78.57;100637.44;1780976;79;21187;-81
2021/04/01 06:40:16;;;;;;;44.38;24.12;;;;;;;9.08;77.79;100634.66;1776091;79;21276;-81
2021/04/01 06:43:50;;;;;;;40.73;25.35;;;;;;;9.28;76.94;100638.55;1774447;79;21259;-81
2021/04/01 06:46:57;;;;;;;35.65;24.05;;;;;;;9.41;74.66;100635.74;1755687;80;21243;-81
2021/04/01 06:50:06;;;;;;;40.03;22.50;;;;;;;9.49;73.53;100637.64;1738631;82;21297;-81
2021/04/01 06:53:13;;;;;;;35.45;20.17;;;;;;;9.64;73.65;100640.63;1744057;81;21687;-81
2021/04/01 06:56:28;;;;;;;34.55;18.90;;;;;;;9.81;73.37;100641.07;1751391;80;21151;-81
2021/04/01 07:00:14;;;;;;;32.30;19.87;;;;;;;9.98;71.30;100630.57;1735415;82;21311;-81
2021/04/01 07:03:13;;;;;;;37.35;16.90;;;;;;;10.06;70.68;100636.55;1750606;81;21337;-81
2021/04/01 07:06:31;;;;;;;32.90;18.85;;;;;;;10.21;70.62;100625.36;1751030;80;21677;-81
2021/04/01 07:12:49;;;;;;;33.25;16.70;;;;;;;10.47;69.18;100619.80;1753733;80;21746;-81
2021/04/01 07:16:01;;;;;;;33.08;18.02;;;;;;;10.61;67.20;100620.16;1752767;80;21429;-82
2021/04/01 07:20:21;;;;;;;37.23;20.75;;;;;;;10.73;67.74;100617.45;1718047;81;21283;-81
2021/04/01 07:34:36;;;;;;;46.77;25.43;;;;;;;11.27;64.74;100615.02;1742058;81;21314;-81
2021/04/01 07:49:26;;;;;;;56.55;28.07;;;;;;;11.59;65.76;100588.59;1755406;80;21829;-81
2021/04/01 07:52:35;;;;;;;61.60;27.62;;;;;;;11.75;64.17;100583.05;1778222;80;21184;-81
2021/04/01 08:02:50;;;;;;;64.53;31.40;;;;;;;12.03;61.75;100569.23;1776971;80;21269;-80
2021/04/01 08:05:49;;;;;;;64.17;28.23;;;;;;;12.07;62.48;100562.03;1772315;80;21266;-80
2021/04/01 08:09:08;;;;;;;55.52;23.65;;;;;;;12.16;62.08;100556.84;1779257;80;21384;-80
2021/04/01 08:12:13;;;;;;;57.35;27.05;;;;;;;12.25;61.56;100555.75;1774551;80;21298;-79
2021/04/01 08:15:24;;;;;;;60.10;26.00;;;;;;;12.28;60.89;100544.44;1790159;78;21887;-80
2021/04/01 08:18:33;;;;;;;52.53;26.25;;;;;;;12.34;61.35;100540.95;1755519;80;21261;-80
2021/04/01 08:21:37;;;;;;;71.85;29.45;;;;;;;12.45;60.75;100547.38;1775963;79;22110;-81
2021/04/01 08:24:48;;;;;;;58.35;27.40;;;;;;;12.54;59.55;100538.57;1763109;80;21258;-81
2021/04/01 08:27:58;;;;;;;57.00;25.08;;;;;;;12.60;59.41;100532.86;1764306;80;21314;-81
2021/04/01 08:34:36;;;;;;;62.27;27.90;;;;;;;12.76;58.94;100531.36;1786070;78;21306;-81
2021/04/01 08:38:29;;;;;;;49.13;24.70;;;;;;;12.81;58.16;100530.81;1788346;78;21348;-81
2021/04/01 08:40:52;;;;;;;61.25;25.02;;;;;;;12.86;58.63;100521.50;1779761;78;21940;-81
2021/04/01 08:44:35;;;;;;;51.95;21.17;;;;;;;12.95;58.13;100517.63;1786268;78;21298;-81
2021/04/01 08:48:01;;;;;;;47.48;22.27;;;;;;;13.00;58.55;100517.40;1793662;78;21337;-81
2021/04/01 08:51:43;;;;;;;43.78;20.60;;;;;;;13.04;56.76;100514.62;1757399;80;21655;-81
2021/04/01 08:55:01;;;;;;;44.85;18.27;;;;;;;12.96;55.24;100504.23;1725311;80;21263;-80
2021/04/01 08:58:41;;;;;;;44.40;20.43;;;;;;;12.90;55.97;100507.73;1752364;80;21167;-80
2021/04/01 09:01:50;;;;;;;50.50;22.55;;;;;;;12.85;54.90;100503.33;1766672;80;21297;-80
2021/04/01 09:04:56;;;;;;;49.65;24.50;;;;;;;12.85;55.44;100493.20;1761062;80;21290;-80
2021/04/01 09:08:08;;;;;;;42.70;20.00;;;;;;;12.87;56.06;100491.63;1766379;80;21181;-80
2021/04/01 09:11:16;;;;;;;61.05;28.67;;;;;;;12.89;54.84;100482.17;1769717;80;21662;-80
2021/04/01 09:14:45;;;;;;;71.50;28.90;;;;;;;12.86;54.37;100475.67;1747390;80;21322;-80
2021/04/01 09:17:46;;;;;;;52.83;24.75;;;;;;;12.82;54.90;100471.59;1758325;80;21212;-80
2021/04/01 09:20:59;;;;;;;62.88;28.80;;;;;;;12.84;54.91;100466.76;1769115;80;21227;-80
2021/04/01 09:24:03;;;;;;;76.25;31.82;;;;;;;12.82;55.19;100464.73;1764868;80;21276;-80
2021/04/01 09:27:10;;;;;;;71.62;32.60;;;;;;;12.85;54.38;100458.88;1776867;80;21302;-80
2021/04/01 09:30:16;;;;;;;70.65;33.80;;;;;;;12.86;54.79;100455.61;1768144;80;21149;-80
2021/04/01 09:33:30;;;;;;;70.15;32.75;;;;;;;12.88;55.16;100455.74;1774927;80;21150;-79
2021/04/01 09:36:46;;;;;;;74.12;32.28;;;;;;;12.96;55.49;100448.80;1772925;80;21272;-79
2021/04/01 09:39:50;;;;;;;81.65;33.50;;;;;;;12.98;53.71;100449.97;1767951;80;21312;-80
2021/04/01 09:42:56;;;;;;;78.78;32.88;;;;;;;12.97;54.54;100439.52;1770820;80;21742;-80
2021/04/01 09:46:02;;;;;;;68.75;31.42;;;;;;;13.03;54.69;100436.03;1772325;80;21152;-80
2021/04/01 09:49:11;;;;;;;67.00;29.57;;;;;;;13.12;54.45;100429.90;1775603;80;21290;-80
2021/04/01 09:52:17;;;;;;;70.65;33.35;;;;;;;13.21;53.00;100421.05;1767347;80;21172;-80
2021/04/01 09:55:23;;;;;;;76.62;32.25;;;;;;;13.26;52.92;100414.48;1740647;80;21255;-81
2021/04/01 09:58:36;;;;;;;57.08;25.02;;;;;;;13.34;54.17;100410.27;1772474;80;21286;-80
2021/04/01 10:01:43;;;;;;;52.85;26.35;;;;;;;13.39;52.72;100412.44;1774886;80;21376;-81
2021/04/01 10:04:47;;;;;;;48.60;21.07;;;;;;;13.35;51.65;100398.23;1775462;80;21275;-81
2021/04/01 10:08:00;;;;;;;46.50;19.98;;;;;;;13.30;50.57;100400.70;1767977;80;21677;-80
2021/04/01 10:11:08;;;;;;;54.15;18.52;;;;;;;13.26;50.55;100402.13;1766165;80;21777;-81
2021/04/01 10:14:15;;;;;;;32.33;14.87;;;;;;;13.24;48.44;100397.36;1773018;79;21191;-80
2021/04/01 10:17:22;;;;;;;34.67;16.07;;;;;;;13.24;48.53;100395.45;1772083;80;21307;-80
2021/04/01 10:20:27;;;;;;;34.03;15.60;;;;;;;13.24;47.76;100387.75;1756436;80;21730;-80
2021/04/01 10:23:31;;;;;;;38.73;15.65;;;;;;;13.29;48.40;100387.49;1774562;79;21274;-80
2021/04/01 10:26:45;;;;;;;34.30;14.70;;;;;;;13.39;48.94;100388.56;1779340;80;21290;-80
2021/04/01 10:33:40;;;;;;;28.35;15.58;;;;;;;13.54;51.07;100372.87;1773922;80;21332;-79
2021/04/01 10:36:48;;;;;;;31.10;15.65;;;;;;;13.64;49.36;100374.46;1727969;82;21163;-80
2021/04/01 10:39:52;;;;;;;24.82;14.23;;;;;;;13.66;49.58;100369.64;1722645;82;21885;-81
2021/04/01 10:43:24;;;;;;;38.23;16.02;;;;;;;13.68;49.45;100363.41;1775602;80;21712;-81
2021/04/01 10:46:31;;;;;;;38.85;18.25;;;;;;;13.68;50.75;100360.66;1771036;79;21709;-81
2021/04/01 10:49:39;;;;;;;36.85;16.80;;;;;;;13.73;50.22;100360.40;1775758;80;21312;-81
2021/04/01 10:52:45;;;;;;;33.42;16.37;;;;;;;13.81;51.49;100347.06;1766398;80;21248;-81
2021/04/01 10:55:51;;;;;;;33.63;16.65;;;;;;;13.93;51.45;100349.63;1772588;79;21167;-80
2021/04/01 10:59:02;;;;;;;25.95;12.40;;;;;;;14.02;50.86;100342.06;1758154;80;21177;-80
2021/04/01 11:02:13;;;;;;;28.42;12.50;;;;;;;14.07;49.31;100342.34;1783195;79;21132;-80
2021/04/01 11:05:23;;;;;;;17.40;9.87;;;;;;;14.09;47.75;100336.63;1775578;80;21230;-81
2021/04/01 11:08:29;;;;;;;15.83;9.40;;;;;;;14.10;46.22;100329.55;1779003;79;21858;-80
2021/04/01 11:15:14;;;;;;;25.65;11.83;;;;;;;14.18;44.82;100326.66;1775558;79;21259;-80
2021/04/01 11:18:24;;;;;;;23.25;11.53;;;;;;;14.18;46.07;100317.03;1771746;80;21255;-81
2021/04/01 11:21:33;;;;;;;13.70;8.57;;;;;;;14.21;46.45;100313.89;1772834;79;21265;-80
2021/04/01 11:24:39;;;;;;;20.40;8.83;;;;;;;14.25;45.39;100308.30;1772263;80;21189;-80
2021/04/01 11:27:45;;;;;;;15.20;8.95;;;;;;;14.27;44.50;100303.45;1770242;80;21634;-81
2021/04/01 11:30:58;;;;;;;17.98;9.15;;;;;;;14.28;44.09;100305.68;1747576;80;21152;-80
2021/04/01 11:34:07;;;;;;;17.32;8.73;;;;;;;14.27;44.55;100301.23;1744477;80;21597;-80
2021/04/01 11:37:18;;;;;;;24.15;9.78;;;;;;;14.26;45.77;100300.39;1777501;80;21249;-80
2021/04/01 11:40:24;;;;;;;22.42;11.83;;;;;;;14.25;44.28;100289.56;1773695;79;21130;-80
2021/04/01 11:43:37;;;;;;;28.70;11.00;;;;;;;14.21;43.75;100285.51;1784643;80;21267;-80
2021/04/01 11:46:42;;;;;;;21.97;11.15;;;;;;;14.16;43.77;100283.88;1781653;80;21310;-80
2021/04/01 11:49:47;;;;;;;29.07;11.22;;;;;;;14.13;43.91;100266.43;1760873;80;21287;-80
2021/04/01 11:52:53;;;;;;;28.00;10.82;;;;;;;14.11;44.18;100258.89;1755203;80;21814;-80
2021/04/01 11:56:00;;;;;;;24.98;11.57;;;;;;;14.14;45.00;100266.22;1780339;80;21241;-80
2021/04/01 11:59:28;;;;;;;27.32;11.90;;;;;;;14.17;43.89;100255.35;1776446;80;21259;-80
2021/04/01 12:02:30;;;;;;;30.85;13.78;;;;;;;14.20;43.82;100257.69;1783215;80;21868;-80
2021/04/01 12:05:47;;;;;;;25.05;12.70;;;;;;;14.25;43.75;100249.67;1778392;80;21505;-80
2021/04/01 12:08:53;;;;;;;34.25;14.63;;;;;;;14.26;43.51;100247.27;1756304;80;21837;-80
2021/04/01 12:11:58;;;;;;;27.07;12.35;;;;;;;14.26;44.22;100234.36;1778365;80;21334;-80
2021/04/01 12:15:05;;;;;;;22.80;12.07;;;;;;;14.29;43.73;100235.84;1778899;80;21267;-80
2021/04/01 12:18:11;;;;;;;21.60;12.20;;;;;;;14.27;43.38;100229.70;1764486;80;21871;-80
2021/04/01 12:21:16;;;;;;;31.30;12.68;;;;;;;14.25;43.08;100222.16;1732174;83;21301;-80
2021/04/01 12:24:22;;;;;;;26.42;13.45;;;;;;;14.25;43.07;100216.13;1757893;80;21722;-80
2021/04/01 12:27:36;;;;;;;32.83;15.50;;;;;;;14.23;42.72;100209.15;1761979;78;21309;-80
2021/04/01 12:30:44;;;;;;;35.00;13.55;;;;;;;14.22;43.43;100210.20;1782515;80;21818;-79
2021/04/01 12:33:57;;;;;;;26.45;13.15;;;;;;;14.23;43.24;100203.65;1778165;80;21306;-79
2021/04/01 12:37:03;;;;;;;28.90;14.55;;;;;;;14.24;43.46;100202.59;1778682;80;21330;-80
2021/04/01 12:40:26;;;;;;;28.60;12.63;;;;;;;14.24;43.44;100196.56;1768402;80;21860;-80
2021/04/01 12:43:45;;;;;;;28.10;14.05;;;;;;;14.26;43.57;100192.25;1728235;83;21318;-80
2021/04/01 12:46:51;;;;;;;27.45;13.22;;;;;;;14.26;43.30;100186.22;1732478;83;21271;-80
2021/04/01 12:49:56;;;;;;;25.85;12.80;;;;;;;14.26;43.56;100181.25;1731973;83;21294;-79
2021/04/01 12:53:02;;;;;;;40.20;16.80;;;;;;;14.26;43.51;100181.25;1780155;80;21401;-80
2021/04/01 12:59:23;;;;;;;38.40;17.80;;;;;;;14.29;44.31;100169.81;1775589;81;21295;-80
2021/04/01 13:02:27;;;;;;;43.98;17.30;;;;;;;14.30;43.58;100161.38;1775668;81;21168;-80
2021/04/01 13:05:33;;;;;;;32.95;18.23;;;;;;;14.30;43.32;100154.50;1755144;81;21172;-80
2021/04/01 13:08:56;;;;;;;54.73;19.52;;;;;;;14.30;43.07;100152.25;1775418;81;21219;-80
2021/04/01 13:11:59;;;;;;;34.03;16.62;;;;;;;14.30;43.29;100149.00;1758482;80;21693;-79
2021/04/01 13:15:05;;;;;;;41.98;16.42;;;;;;;14.31;43.98;100145.72;1759798;81;21843;-79
2021/04/01 13:18:10;;;;;;;48.78;16.87;;;;;;;14.33;44.64;100140.84;1762599;81;21186;-80
2021/04/01 13:21:31;;;;;;;48.50;17.27;;;;;;;14.33;43.74;100133.44;1754772;82;21183;-80
2021/04/01 13:27:55;;;;;;;39.98;18.15;;;;;;;14.34;43.78;100121.90;1762737;81;21839;-79
2021/04/01 13:31:01;;;;;;;39.03;17.40;;;;;;;14.33;43.33;100120.20;1762770;81;21178;-80
2021/04/01 13:34:54;;;;;;;38.75;18.62;;;;;;;14.31;43.13;100117.67;1759584;81;21170;-79
2021/04/01 13:37:29;;;;;;;48.00;19.55;;;;;;;14.30;43.01;100116.48;1751668;81;21325;-79
2021/04/01 13:40:29;;;;;;;45.00;19.17;;;;;;;14.29;42.95;100110.13;1759794;81;21151;-80
2021/04/01 13:43:33;;;;;;;34.73;18.75;;;;;;;14.28;43.19;100107.07;1759814;81;21219;-80
2021/04/01 13:46:38;;;;;;;39.98;18.10;;;;;;;14.27;43.55;100104.00;1759742;81;21278;-80
2021/04/01 13:49:48;;;;;;;43.90;17.67;;;;;;;14.26;43.74;100096.81;1759801;81;21166;-80
2021/04/01 13:53:16;;;;;;;41.42;18.82;;;;;;;14.27;43.99;100089.41;1759746;81;21298;-79
2021/04/01 13:56:19;;;;;;;49.75;19.62;;;;;;;14.27;43.89;100086.65;1755680;80;21300;-80
2021/04/01 13:59:29;;;;;;;52.70;17.77;;;;;;;14.27;43.77;100087.50;1789372;80;21849;-79
2021/04/01 14:09:41;;;;;;;44.98;20.25;;;;;;;14.28;43.37;100068.55;1773241;81;21164;-79
2021/04/01 14:12:50;;;;;;;43.05;18.00;;;;;;;14.30;43.38;100069.21;1778346;80;21334;-82
2021/04/01 14:15:59;;;;;;;47.08;19.02;;;;;;;14.30;42.97;100058.70;1772904;81;21224;-80
2021/04/01 14:19:04;;;;;;;46.42;18.95;;;;;;;14.31;42.97;100060.43;1773959;81;21156;-80
2021/04/01 14:22:12;;;;;;;35.52;13.15;;;;;;;14.32;43.14;100062.97;1772677;81;21156;-80
2021/04/01 14:26:26;;;;;;;45.20;16.67;;;;;;;14.31;42.92;100048.89;1773837;81;21152;-80
2021/04/01 14:28:34;;;;;;;26.37;12.73;;;;;;;14.33;42.99;100044.55;1761115;81;21600;-79
2021/04/01 14:31:41;;;;;;;27.50;12.98;;;;;;;14.32;43.38;100049.20;1773535;81;21966;-80
2021/04/01 14:34:48;;;;;;;31.82;12.70;;;;;;;14.30;43.65;100040.83;1771878;81;21369;-80
2021/04/01 14:37:58;;;;;;;17.15;9.60;;;;;;;14.28;43.89;100044.33;1772344;81;21282;-79
2021/04/01 14:41:12;;;;;;;18.12;10.05;;;;;;;14.26;43.66;100043.70;1761298;79;21320;-80
2021/04/01 14:44:20;;;;;;;18.90;9.18;;;;;;;14.22;42.90;100043.78;1742120;82;21840;-79
2021/04/01 14:47:29;;;;;;;17.80;8.65;;;;;;;14.18;42.86;100043.87;1742043;82;21853;-80
2021/04/01 14:50:36;;;;;;;20.45;9.45;;;;;;;14.14;43.31;100039.30;1741589;82;21193;-80
2021/04/01 14:56:55;;;;;;;19.45;8.25;;;;;;;14.10;43.94;100046.80;1742997;81;21317;-80
2021/04/01 15:00:01;;;;;;;22.87;7.97;;;;;;;14.06;43.90;100038.10;1786050;80;21242;-81
2021/04/01 15:03:07;;;;;;;20.05;7.90;;;;;;;14.03;43.46;100039.91;1784349;80;21337;-80
2021/04/01 15:06:12;;;;;;;15.60;7.75;;;;;;;13.99;43.48;100042.21;1784856;80;21883;-81
2021/04/01 15:09:18;;;;;;;17.57;8.00;;;;;;;13.96;43.73;100032.14;1785176;80;21851;-78
2021/04/01 15:12:23;;;;;;;19.00;7.10;;;;;;;13.92;44.78;100034.45;1782918;79;21329;-78
2021/04/01 15:15:28;;;;;;;15.15;5.97;;;;;;;13.88;45.74;100036.44;1782912;80;21305;-78
2021/04/01 15:18:51;;;;;;;13.30;5.53;;;;;;;13.85;45.38;100035.48;1781543;79;21341;-78
2021/04/01 15:21:56;;;;;;;9.55;4.25;;;;;;;13.79;45.66;100035.78;1781622;79;21191;-78
2021/04/01 15:25:03;;;;;;;7.25;4.72;;;;;;;13.74;45.70;100034.17;1784234;80;21337;-78
2021/04/01 15:28:08;;;;;;;11.53;4.62;;;;;;;13.69;45.94;100035.28;1790110;79;21288;-78
2021/04/01 15:31:16;;;;;;;17.73;6.53;;;;;;;13.63;46.11;100033.36;1790614;80;21269;-79
2021/04/01 15:34:21;;;;;;;32.15;14.68;;;;;;;13.57;46.19;100031.42;1791342;80;21246;-79
2021/04/01 15:37:27;;;;;;;54.95;23.12;;;;;;;13.48;46.25;100028.83;1790875;79;21262;-78
2021/04/01 15:40:34;;;;;;;55.83;25.95;;;;;;;13.43;46.21;100035.98;1791116;80;21341;-78
2021/04/01 15:43:40;;;;;;;65.20;28.75;;;;;;;13.34;46.31;100023.46;1789860;79;21289;-77
2021/04/01 15:46:46;;;;;;;60.60;28.52;;;;;;;13.27;46.38;100027.55;1789712;79;21148;-78